sensor_id;sensor_type;location;lat;lon;timestamp;temperature;humidity
80426;DHT22;69766;51.476;5.704;2023-07-16T00:02:01;17.00;99.90
80426;DHT22;69766;51.476;5.704;2023-07-16T00:04:27;17.10;99.90
80426;DHT22;69766;51.476;5.704;2023-07-16T00:06:53;17.10;99.90
80426;DHT22;69766;51.476;5.704;2023-07-16T00:09:18;17.10;99.90
80426;DHT22;69766;51.476;5.704;2023-07-16T00:11:44;17.10;99.90
80426;DHT22;69766;51.476;5.704;2023-07-16T00:14:11;17.10;99.90
80426;DHT22;69766;51.476;5.704;2023-07-16T00:16:37;17.10;99.90
80426;DHT22;69766;51.476;5.704;2023-07-16T00:19:03;17.00;99.90
80426;DHT22;69766;51.476;5.704;2023-07-16T00:21:29;17.00;99.90
80426;DHT22;69766;51.476;5.704;2023-07-16T00:23:54;17.00;99.90
80426;DHT22;69766;51.476;5.704;2023-07-16T00:26:21;16.90;99.90
80426;DHT22;69766;51.476;5.704;2023-07-16T00:28:47;16.90;99.90
80426;DHT22;69766;51.476;5.704;2023-07-16T00:31:13;16.80;99.90
80426;DHT22;69766;51.476;5.704;2023-07-16T00:33:38;16.80;99.90
80426;DHT22;69766;51.476;5.704;2023-07-16T00:36:04;16.80;99.90
80426;DHT22;69766;51.476;5.704;2023-07-16T00:38:30;16.80;99.90
80426;DHT22;69766;51.476;5.704;2023-07-16T00:40:56;16.70;99.90
80426;DHT22;69766;51.476;5.704;2023-07-16T00:43:22;16.80;99.90
80426;DHT22;69766;51.476;5.704;2023-07-16T00:45:48;16.70;99.90
80426;DHT22;69766;51.476;5.704;2023-07-16T00:48:15;16.70;99.90
80426;DHT22;69766;51.476;5.704;2023-07-16T00:50:41;16.70;99.90
80426;DHT22;69766;51.476;5.704;2023-07-16T00:53:10;16.70;99.90
80426;DHT22;69766;51.476;5.704;2023-07-16T00:55:38;16.70;99.90
80426;DHT22;69766;51.476;5.704;2023-07-16T00:58:06;16.80;99.90
80426;DHT22;69766;51.476;5.704;2023-07-16T01:00:37;16.80;99.90
80426;DHT22;69766;51.476;5.704;2023-07-16T01:03:07;16.90;99.90
80426;DHT22;69766;51.476;5.704;2023-07-16T01:06:15;16.90;99.90
80426;DHT22;69766;51.476;5.704;2023-07-16T01:08:52;16.90;99.90
80426;DHT22;69766;51.476;5.704;2023-07-16T01:11:20;16.80;99.90
80426;DHT22;69766;51.476;5.704;2023-07-16T01:13:46;16.90;99.90
80426;DHT22;69766;51.476;5.704;2023-07-16T01:16:19;16.90;99.90
80426;DHT22;69766;51.476;5.704;2023-07-16T01:18:45;16.90;99.90
80426;DHT22;69766;51.476;5.704;2023-07-16T01:21:11;16.90;99.90
80426;DHT22;69766;51.476;5.704;2023-07-16T01:26:32;16.90;99.90
80426;DHT22;69766;51.476;5.704;2023-07-16T01:31:46;16.80;99.90
80426;DHT22;69766;51.476;5.704;2023-07-16T01:34:14;16.80;99.90
80426;DHT22;69766;51.476;5.704;2023-07-16T01:36:40;16.70;99.90
80426;DHT22;69766;51.476;5.704;2023-07-16T01:39:06;16.70;99.90
80426;DHT22;69766;51.476;5.704;2023-07-16T01:41:32;16.50;99.90
80426;DHT22;69766;51.476;5.704;2023-07-16T01:43:57;16.50;99.90
80426;DHT22;69766;51.476;5.704;2023-07-16T01:46:24;16.40;99.90
80426;DHT22;69766;51.476;5.704;2023-07-16T01:48:50;16.40;99.90
80426;DHT22;69766;51.476;5.704;2023-07-16T01:51:16;16.30;99.90
80426;DHT22;69766;51.476;5.704;2023-07-16T01:53:42;16.20;99.90
80426;DHT22;69766;51.476;5.704;2023-07-16T01:56:07;16.20;99.90
80426;DHT22;69766;51.476;5.704;2023-07-16T01:58:33;16.10;99.90
80426;DHT22;69766;51.476;5.704;2023-07-16T02:00:59;16.10;99.90
80426;DHT22;69766;51.476;5.704;2023-07-16T02:03:25;16.10;99.90
80426;DHT22;69766;51.476;5.704;2023-07-16T02:05:50;16.10;99.90
80426;DHT22;69766;51.476;5.704;2023-07-16T02:08:19;16.10;99.90
80426;DHT22;69766;51.476;5.704;2023-07-16T02:10:47;16.00;99.90
80426;DHT22;69766;51.476;5.704;2023-07-16T02:13:13;15.90;99.90
80426;DHT22;69766;51.476;5.704;2023-07-16T02:15:39;16.00;99.90
80426;DHT22;69766;51.476;5.704;2023-07-16T02:18:05;15.90;99.90
80426;DHT22;69766;51.476;5.704;2023-07-16T02:20:31;15.90;99.90
80426;DHT22;69766;51.476;5.704;2023-07-16T02:22:57;16.00;99.90
80426;DHT22;69766;51.476;5.704;2023-07-16T02:25:23;15.90;99.90
80426;DHT22;69766;51.476;5.704;2023-07-16T02:27:48;15.90;99.90
80426;DHT22;69766;51.476;5.704;2023-07-16T02:30:15;15.90;99.90
80426;DHT22;69766;51.476;5.704;2023-07-16T02:32:40;15.90;99.90
80426;DHT22;69766;51.476;5.704;2023-07-16T02:35:07;15.90;99.90
80426;DHT22;69766;51.476;5.704;2023-07-16T02:37:33;15.80;99.90
80426;DHT22;69766;51.476;5.704;2023-07-16T02:39:59;15.80;99.90
80426;DHT22;69766;51.476;5.704;2023-07-16T02:42:25;15.80;99.90
80426;DHT22;69766;51.476;5.704;2023-07-16T02:44:51;15.80;99.90
80426;DHT22;69766;51.476;5.704;2023-07-16T02:47:17;15.80;99.90
80426;DHT22;69766;51.476;5.704;2023-07-16T02:49:43;15.90;99.90
80426;DHT22;69766;51.476;5.704;2023-07-16T02:52:08;15.90;99.90
80426;DHT22;69766;51.476;5.704;2023-07-16T02:54:37;15.90;99.90
80426;DHT22;69766;51.476;5.704;2023-07-16T02:57:03;15.90;99.90
80426;DHT22;69766;51.476;5.704;2023-07-16T02:59:29;15.90;99.90
80426;DHT22;69766;51.476;5.704;2023-07-16T03:01:55;15.80;99.90
80426;DHT22;69766;51.476;5.704;2023-07-16T03:04:21;15.80;99.90
80426;DHT22;69766;51.476;5.704;2023-07-16T03:06:46;15.70;99.90
80426;DHT22;69766;51.476;5.704;2023-07-16T03:09:12;15.80;99.90
80426;DHT22;69766;51.476;5.704;2023-07-16T03:11:38;15.70;99.90
80426;DHT22;69766;51.476;5.704;2023-07-16T03:14:03;15.60;99.90
80426;DHT22;69766;51.476;5.704;2023-07-16T03:16:29;15.60;99.90
80426;DHT22;69766;51.476;5.704;2023-07-16T03:18:55;15.60;99.90
80426;DHT22;69766;51.476;5.704;2023-07-16T03:21:20;15.50;99.90
80426;DHT22;69766;51.476;5.704;2023-07-16T03:23:46;15.50;99.90
80426;DHT22;69766;51.476;5.704;2023-07-16T03:26:11;15.50;99.90
80426;DHT22;69766;51.476;5.704;2023-07-16T03:28:37;15.40;99.90
80426;DHT22;69766;51.476;5.704;2023-07-16T03:31:03;15.30;99.90
80426;DHT22;69766;51.476;5.704;2023-07-16T03:33:28;15.30;99.90
80426;DHT22;69766;51.476;5.704;2023-07-16T03:35:54;15.30;99.90
80426;DHT22;69766;51.476;5.704;2023-07-16T03:38:20;15.20;99.90
80426;DHT22;69766;51.476;5.704;2023-07-16T03:40:49;15.20;99.90
80426;DHT22;69766;51.476;5.704;2023-07-16T03:43:16;15.20;99.90
80426;DHT22;69766;51.476;5.704;2023-07-16T03:45:42;15.10;99.90
80426;DHT22;69766;51.476;5.704;2023-07-16T03:48:08;15.10;99.90
80426;DHT22;69766;51.476;5.704;2023-07-16T03:50:34;15.00;99.90
80426;DHT22;69766;51.476;5.704;2023-07-16T03:53:00;15.00;99.90
80426;DHT22;69766;51.476;5.704;2023-07-16T03:55:25;14.90;99.90
80426;DHT22;69766;51.476;5.704;2023-07-16T03:57:52;14.90;99.90
80426;DHT22;69766;51.476;5.704;2023-07-16T04:00:17;15.00;99.90
80426;DHT22;69766;51.476;5.704;2023-07-16T04:02:43;14.90;99.90
80426;DHT22;69766;51.476;5.704;2023-07-16T04:05:09;14.90;99.90
80426;DHT22;69766;51.476;5.704;2023-07-16T04:07:35;14.90;99.90
80426;DHT22;69766;51.476;5.704;2023-07-16T04:10:00;14.90;99.90
80426;DHT22;69766;51.476;5.704;2023-07-16T04:15:52;15.00;99.90
80426;DHT22;69766;51.476;5.704;2023-07-16T04:18:21;14.90;99.90
80426;DHT22;69766;51.476;5.704;2023-07-16T04:20:47;15.00;99.90
80426;DHT22;69766;51.476;5.704;2023-07-16T04:23:12;15.00;99.90
80426;DHT22;69766;51.476;5.704;2023-07-16T04:25:38;15.00;99.90
80426;DHT22;69766;51.476;5.704;2023-07-16T04:28:03;15.00;99.90
80426;DHT22;69766;51.476;5.704;2023-07-16T04:30:29;15.00;99.90
80426;DHT22;69766;51.476;5.704;2023-07-16T04:32:55;15.00;99.90
80426;DHT22;69766;51.476;5.704;2023-07-16T04:35:21;15.00;99.90
80426;DHT22;69766;51.476;5.704;2023-07-16T04:37:46;15.00;99.90
80426;DHT22;69766;51.476;5.704;2023-07-16T04:40:12;15.00;99.90
80426;DHT22;69766;51.476;5.704;2023-07-16T04:42:38;15.00;99.90
80426;DHT22;69766;51.476;5.704;2023-07-16T04:45:04;15.10;99.90
80426;DHT22;69766;51.476;5.704;2023-07-16T04:47:30;15.10;99.90
80426;DHT22;69766;51.476;5.704;2023-07-16T04:49:58;15.10;99.90
80426;DHT22;69766;51.476;5.704;2023-07-16T04:52:24;15.10;99.90
80426;DHT22;69766;51.476;5.704;2023-07-16T04:54:49;15.10;99.90
80426;DHT22;69766;51.476;5.704;2023-07-16T04:57:15;15.10;99.90
80426;DHT22;69766;51.476;5.704;2023-07-16T04:59:41;15.20;99.90
80426;DHT22;69766;51.476;5.704;2023-07-16T05:02:07;15.20;99.90
80426;DHT22;69766;51.476;5.704;2023-07-16T05:04:35;15.20;99.90
80426;DHT22;69766;51.476;5.704;2023-07-16T05:07:02;15.20;99.90
80426;DHT22;69766;51.476;5.704;2023-07-16T05:09:28;15.10;99.90
80426;DHT22;69766;51.476;5.704;2023-07-16T05:11:54;15.20;99.90
80426;DHT22;69766;51.476;5.704;2023-07-16T05:14:19;15.20;99.90
80426;DHT22;69766;51.476;5.704;2023-07-16T05:16:45;15.30;99.90
80426;DHT22;69766;51.476;5.704;2023-07-16T05:19:11;15.20;99.90
80426;DHT22;69766;51.476;5.704;2023-07-16T05:21:37;15.30;99.90
80426;DHT22;69766;51.476;5.704;2023-07-16T05:24:03;15.30;99.90
80426;DHT22;69766;51.476;5.704;2023-07-16T05:26:29;15.40;99.90
80426;DHT22;69766;51.476;5.704;2023-07-16T05:28:54;15.40;99.90
80426;DHT22;69766;51.476;5.704;2023-07-16T05:31:20;15.40;99.90
80426;DHT22;69766;51.476;5.704;2023-07-16T05:33:45;15.40;99.90
80426;DHT22;69766;51.476;5.704;2023-07-16T05:36:11;15.40;99.90
80426;DHT22;69766;51.476;5.704;2023-07-16T05:38:37;15.50;99.90
80426;DHT22;69766;51.476;5.704;2023-07-16T05:41:03;15.50;99.90
80426;DHT22;69766;51.476;5.704;2023-07-16T05:43:29;15.50;99.90
80426;DHT22;69766;51.476;5.704;2023-07-16T05:45:55;15.50;99.90
80426;DHT22;69766;51.476;5.704;2023-07-16T05:48:21;15.50;99.90
80426;DHT22;69766;51.476;5.704;2023-07-16T05:50:46;15.60;99.90
80426;DHT22;69766;51.476;5.704;2023-07-16T05:53:12;15.70;99.90
80426;DHT22;69766;51.476;5.704;2023-07-16T05:55:42;15.70;99.90
80426;DHT22;69766;51.476;5.704;2023-07-16T05:58:08;15.70;99.90
80426;DHT22;69766;51.476;5.704;2023-07-16T06:00:34;15.90;99.90
80426;DHT22;69766;51.476;5.704;2023-07-16T06:03:01;15.90;99.90
80426;DHT22;69766;51.476;5.704;2023-07-16T06:05:27;16.00;99.90
80426;DHT22;69766;51.476;5.704;2023-07-16T06:07:56;16.10;99.90
80426;DHT22;69766;51.476;5.704;2023-07-16T06:10:22;16.10;99.90
80426;DHT22;69766;51.476;5.704;2023-07-16T06:12:47;16.20;99.90
80426;DHT22;69766;51.476;5.704;2023-07-16T06:15:13;16.20;99.90
80426;DHT22;69766;51.476;5.704;2023-07-16T06:17:38;16.20;99.90
80426;DHT22;69766;51.476;5.704;2023-07-16T06:20:05;16.30;99.90
80426;DHT22;69766;51.476;5.704;2023-07-16T06:22:31;16.40;99.90
80426;DHT22;69766;51.476;5.704;2023-07-16T06:24:57;16.40;99.90
80426;DHT22;69766;51.476;5.704;2023-07-16T06:27:23;16.60;99.90
80426;DHT22;69766;51.476;5.704;2023-07-16T06:29:48;16.60;99.90
80426;DHT22;69766;51.476;5.704;2023-07-16T06:32:14;16.80;99.90
80426;DHT22;69766;51.476;5.704;2023-07-16T06:34:40;17.10;99.90
80426;DHT22;69766;51.476;5.704;2023-07-16T06:37:06;17.20;99.90
80426;DHT22;69766;51.476;5.704;2023-07-16T06:39:31;17.50;99.90
80426;DHT22;69766;51.476;5.704;2023-07-16T06:41:57;17.90;99.90
80426;DHT22;69766;51.476;5.704;2023-07-16T06:44:23;18.60;99.90
80426;DHT22;69766;51.476;5.704;2023-07-16T06:46:49;19.00;98.60
80426;DHT22;69766;51.476;5.704;2023-07-16T06:49:15;19.50;96.20
80426;DHT22;69766;51.476;5.704;2023-07-16T06:51:40;19.40;95.20
80426;DHT22;69766;51.476;5.704;2023-07-16T06:54:07;19.70;95.10
80426;DHT22;69766;51.476;5.704;2023-07-16T06:56:33;19.80;93.80
80426;DHT22;69766;51.476;5.704;2023-07-16T06:58:58;20.20;93.30
80426;DHT22;69766;51.476;5.704;2023-07-16T07:01:24;20.60;92.10
80426;DHT22;69766;51.476;5.704;2023-07-16T07:03:50;20.40;93.00
80426;DHT22;69766;51.476;5.704;2023-07-16T07:06:15;20.90;91.20
80426;DHT22;69766;51.476;5.704;2023-07-16T07:08:41;21.20;90.00
80426;DHT22;69766;51.476;5.704;2023-07-16T07:11:07;20.90;90.50
80426;DHT22;69766;51.476;5.704;2023-07-16T07:13:32;20.90;88.10
80426;DHT22;69766;51.476;5.704;2023-07-16T07:15:58;21.10;88.50
80426;DHT22;69766;51.476;5.704;2023-07-16T07:18:23;20.90;89.80
80426;DHT22;69766;51.476;5.704;2023-07-16T07:20:49;21.10;89.50
80426;DHT22;69766;51.476;5.704;2023-07-16T07:23:15;21.60;88.50
80426;DHT22;69766;51.476;5.704;2023-07-16T07:25:41;21.90;87.10
80426;DHT22;69766;51.476;5.704;2023-07-16T07:28:07;22.30;84.30
80426;DHT22;69766;51.476;5.704;2023-07-16T07:30:32;21.70;83.60
80426;DHT22;69766;51.476;5.704;2023-07-16T07:32:58;21.50;85.20
80426;DHT22;69766;51.476;5.704;2023-07-16T07:35:24;22.10;84.70
80426;DHT22;69766;51.476;5.704;2023-07-16T07:37:49;22.60;82.40
80426;DHT22;69766;51.476;5.704;2023-07-16T07:40:15;22.80;81.80
80426;DHT22;69766;51.476;5.704;2023-07-16T07:42:41;22.90;79.10
80426;DHT22;69766;51.476;5.704;2023-07-16T07:45:07;22.40;78.70
80426;DHT22;69766;51.476;5.704;2023-07-16T07:47:33;22.40;80.00
80426;DHT22;69766;51.476;5.704;2023-07-16T07:49:58;22.20;80.60
80426;DHT22;69766;51.476;5.704;2023-07-16T07:52:27;22.60;80.40
80426;DHT22;69766;51.476;5.704;2023-07-16T07:54:53;22.80;78.70
80426;DHT22;69766;51.476;5.704;2023-07-16T07:57:19;23.00;79.40
80426;DHT22;69766;51.476;5.704;2023-07-16T07:59:45;23.40;77.90
80426;DHT22;69766;51.476;5.704;2023-07-16T08:02:11;24.20;74.40
80426;DHT22;69766;51.476;5.704;2023-07-16T08:04:37;24.20;73.40
80426;DHT22;69766;51.476;5.704;2023-07-16T08:07:03;24.30;71.70
80426;DHT22;69766;51.476;5.704;2023-07-16T08:09:28;24.00;72.10
80426;DHT22;69766;51.476;5.704;2023-07-16T08:11:54;23.80;75.10
80426;DHT22;69766;51.476;5.704;2023-07-16T08:14:20;23.30;74.90
80426;DHT22;69766;51.476;5.704;2023-07-16T08:16:45;23.60;75.40
80426;DHT22;69766;51.476;5.704;2023-07-16T08:19:12;24.20;73.70
80426;DHT22;69766;51.476;5.704;2023-07-16T08:21:37;24.30;70.70
80426;DHT22;69766;51.476;5.704;2023-07-16T08:24:05;24.50;70.90
80426;DHT22;69766;51.476;5.704;2023-07-16T08:26:31;24.60;70.50
80426;DHT22;69766;51.476;5.704;2023-07-16T08:28:56;25.00;70.90
80426;DHT22;69766;51.476;5.704;2023-07-16T08:31:22;25.40;68.20
80426;DHT22;69766;51.476;5.704;2023-07-16T08:33:58;24.70;67.60
80426;DHT22;69766;51.476;5.704;2023-07-16T08:36:44;24.20;70.30
80426;DHT22;69766;51.476;5.704;2023-07-16T08:39:10;24.20;69.60
80426;DHT22;69766;51.476;5.704;2023-07-16T08:41:36;23.80;68.80
80426;DHT22;69766;51.476;5.704;2023-07-16T08:44:02;23.70;70.70
80426;DHT22;69766;51.476;5.704;2023-07-16T08:46:27;24.50;69.40
80426;DHT22;69766;51.476;5.704;2023-07-16T08:48:53;25.10;69.20
80426;DHT22;69766;51.476;5.704;2023-07-16T08:51:20;26.00;65.10
80426;DHT22;69766;51.476;5.704;2023-07-16T08:53:47;25.70;65.10
80426;DHT22;69766;51.476;5.704;2023-07-16T08:56:12;26.10;63.90
80426;DHT22;69766;51.476;5.704;2023-07-16T08:58:38;25.80;64.30
80426;DHT22;69766;51.476;5.704;2023-07-16T09:01:06;25.40;65.50
80426;DHT22;69766;51.476;5.704;2023-07-16T09:03:31;25.60;62.90
80426;DHT22;69766;51.476;5.704;2023-07-16T09:05:57;24.70;63.80
80426;DHT22;69766;51.476;5.704;2023-07-16T09:08:23;24.90;66.50
80426;DHT22;69766;51.476;5.704;2023-07-16T09:10:57;25.10;65.20
80426;DHT22;69766;51.476;5.704;2023-07-16T09:13:23;24.80;64.50
80426;DHT22;69766;51.476;5.704;2023-07-16T09:15:58;24.40;66.80
80426;DHT22;69766;51.476;5.704;2023-07-16T09:18:27;24.90;67.80
80426;DHT22;69766;51.476;5.704;2023-07-16T09:20:57;25.30;67.10
80426;DHT22;69766;51.476;5.704;2023-07-16T09:23:26;25.30;64.80
80426;DHT22;69766;51.476;5.704;2023-07-16T09:25:54;26.10;63.40
80426;DHT22;69766;51.476;5.704;2023-07-16T09:28:20;25.00;64.90
80426;DHT22;69766;51.476;5.704;2023-07-16T09:30:47;24.50;64.40
80426;DHT22;69766;51.476;5.704;2023-07-16T09:33:18;24.10;66.60
80426;DHT22;69766;51.476;5.704;2023-07-16T09:35:48;24.40;65.40
80426;DHT22;69766;51.476;5.704;2023-07-16T09:38:14;24.30;64.80
80426;DHT22;69766;51.476;5.704;2023-07-16T09:40:40;24.50;65.20
80426;DHT22;69766;51.476;5.704;2023-07-16T09:43:09;24.70;64.70
80426;DHT22;69766;51.476;5.704;2023-07-16T09:45:38;24.30;66.10
80426;DHT22;69766;51.476;5.704;2023-07-16T09:48:04;24.60;66.10
80426;DHT22;69766;51.476;5.704;2023-07-16T09:50:32;24.50;65.40
80426;DHT22;69766;51.476;5.704;2023-07-16T09:52:58;24.20;67.00
80426;DHT22;69766;51.476;5.704;2023-07-16T09:55:25;23.70;66.20
80426;DHT22;69766;51.476;5.704;2023-07-16T09:57:56;23.40;66.00
80426;DHT22;69766;51.476;5.704;2023-07-16T10:00:23;23.30;68.80
80426;DHT22;69766;51.476;5.704;2023-07-16T10:02:50;23.40;69.90
80426;DHT22;69766;51.476;5.704;2023-07-16T10:05:26;23.80;66.40
80426;DHT22;69766;51.476;5.704;2023-07-16T10:07:56;24.00;64.10
80426;DHT22;69766;51.476;5.704;2023-07-16T10:10:47;23.40;67.90
80426;DHT22;69766;51.476;5.704;2023-07-16T10:13:14;24.40;66.60
80426;DHT22;69766;51.476;5.704;2023-07-16T10:15:57;24.40;64.00
80426;DHT22;69766;51.476;5.704;2023-07-16T10:18:31;25.50;62.70
80426;DHT22;69766;51.476;5.704;2023-07-16T10:21:01;24.60;61.60
80426;DHT22;69766;51.476;5.704;2023-07-16T10:23:39;23.10;65.90
80426;DHT22;69766;51.476;5.704;2023-07-16T10:26:06;22.70;67.50
80426;DHT22;69766;51.476;5.704;2023-07-16T10:28:35;22.70;68.70
80426;DHT22;69766;51.476;5.704;2023-07-16T10:31:01;22.50;68.00
80426;DHT22;69766;51.476;5.704;2023-07-16T10:33:27;22.30;70.40
80426;DHT22;69766;51.476;5.704;2023-07-16T10:35:53;22.60;70.20
80426;DHT22;69766;51.476;5.704;2023-07-16T10:38:19;22.70;69.50
80426;DHT22;69766;51.476;5.704;2023-07-16T10:40:45;22.60;69.90
80426;DHT22;69766;51.476;5.704;2023-07-16T10:43:14;22.40;70.20
80426;DHT22;69766;51.476;5.704;2023-07-16T10:45:40;22.20;70.40
80426;DHT22;69766;51.476;5.704;2023-07-16T10:48:07;21.90;71.50
80426;DHT22;69766;51.476;5.704;2023-07-16T10:50:33;21.70;72.40
80426;DHT22;69766;51.476;5.704;2023-07-16T10:53:00;21.60;74.00
80426;DHT22;69766;51.476;5.704;2023-07-16T10:55:28;21.50;73.90
80426;DHT22;69766;51.476;5.704;2023-07-16T10:57:57;21.90;75.00
80426;DHT22;69766;51.476;5.704;2023-07-16T11:00:23;22.50;71.60
80426;DHT22;69766;51.476;5.704;2023-07-16T11:02:52;22.40;70.80
80426;DHT22;69766;51.476;5.704;2023-07-16T11:05:18;22.00;73.60
80426;DHT22;69766;51.476;5.704;2023-07-16T11:07:48;21.90;73.30
80426;DHT22;69766;51.476;5.704;2023-07-16T11:10:18;21.80;74.60
80426;DHT22;69766;51.476;5.704;2023-07-16T11:12:44;21.70;74.40
80426;DHT22;69766;51.476;5.704;2023-07-16T11:15:10;21.70;74.90
80426;DHT22;69766;51.476;5.704;2023-07-16T11:17:38;21.90;73.10
80426;DHT22;69766;51.476;5.704;2023-07-16T11:20:07;22.00;73.20
80426;DHT22;69766;51.476;5.704;2023-07-16T11:22:36;22.30;72.30
80426;DHT22;69766;51.476;5.704;2023-07-16T11:25:02;22.30;72.20
80426;DHT22;69766;51.476;5.704;2023-07-16T11:27:31;22.40;72.30
80426;DHT22;69766;51.476;5.704;2023-07-16T11:30:00;22.40;72.30
80426;DHT22;69766;51.476;5.704;2023-07-16T11:32:30;22.40;72.20
80426;DHT22;69766;51.476;5.704;2023-07-16T11:34:58;22.20;74.30
80426;DHT22;69766;51.476;5.704;2023-07-16T11:37:25;22.20;75.10
80426;DHT22;69766;51.476;5.704;2023-07-16T11:39:57;22.10;73.00
80426;DHT22;69766;51.476;5.704;2023-07-16T11:42:48;22.00;73.40
80426;DHT22;69766;51.476;5.704;2023-07-16T11:47:42;21.80;75.00
80426;DHT22;69766;51.476;5.704;2023-07-16T11:50:08;22.00;75.30
80426;DHT22;69766;51.476;5.704;2023-07-16T11:52:34;21.90;75.00
80426;DHT22;69766;51.476;5.704;2023-07-16T11:55:00;21.80;75.50
80426;DHT22;69766;51.476;5.704;2023-07-16T11:57:25;21.90;76.20
80426;DHT22;69766;51.476;5.704;2023-07-16T11:59:51;22.00;76.80
80426;DHT22;69766;51.476;5.704;2023-07-16T12:02:17;22.10;74.70
80426;DHT22;69766;51.476;5.704;2023-07-16T12:04:43;22.10;74.20
80426;DHT22;69766;51.476;5.704;2023-07-16T12:07:09;22.20;74.30
80426;DHT22;69766;51.476;5.704;2023-07-16T12:09:34;22.30;74.90
80426;DHT22;69766;51.476;5.704;2023-07-16T12:12:01;22.80;73.20
80426;DHT22;69766;51.476;5.704;2023-07-16T12:14:26;22.80;72.50
80426;DHT22;69766;51.476;5.704;2023-07-16T12:16:52;22.90;72.50
80426;DHT22;69766;51.476;5.704;2023-07-16T12:19:18;23.00;72.30
80426;DHT22;69766;51.476;5.704;2023-07-16T12:21:44;22.90;74.00
80426;DHT22;69766;51.476;5.704;2023-07-16T12:24:09;22.90;72.20
80426;DHT22;69766;51.476;5.704;2023-07-16T12:26:35;22.80;71.40
80426;DHT22;69766;51.476;5.704;2023-07-16T12:29:01;22.60;72.90
80426;DHT22;69766;51.476;5.704;2023-07-16T12:31:31;22.80;72.40
80426;DHT22;69766;51.476;5.704;2023-07-16T12:33:57;23.20;70.60
80426;DHT22;69766;51.476;5.704;2023-07-16T12:36:23;23.40;73.40
80426;DHT22;69766;51.476;5.704;2023-07-16T12:38:48;24.30;69.90
80426;DHT22;69766;51.476;5.704;2023-07-16T12:41:14;24.50;65.70
80426;DHT22;69766;51.476;5.704;2023-07-16T12:43:42;24.10;66.80
80426;DHT22;69766;51.476;5.704;2023-07-16T12:46:08;24.00;69.00
80426;DHT22;69766;51.476;5.704;2023-07-16T12:48:36;23.70;68.80
80426;DHT22;69766;51.476;5.704;2023-07-16T12:51:02;23.60;69.60
80426;DHT22;69766;51.476;5.704;2023-07-16T12:53:28;23.30;70.00
80426;DHT22;69766;51.476;5.704;2023-07-16T12:55:54;23.20;71.50
80426;DHT22;69766;51.476;5.704;2023-07-16T12:58:20;23.30;72.50
80426;DHT22;69766;51.476;5.704;2023-07-16T13:00:45;23.20;72.00
80426;DHT22;69766;51.476;5.704;2023-07-16T13:03:11;23.00;72.10
80426;DHT22;69766;51.476;5.704;2023-07-16T13:05:40;23.10;72.10
80426;DHT22;69766;51.476;5.704;2023-07-16T13:08:05;23.80;68.30
80426;DHT22;69766;51.476;5.704;2023-07-16T13:10:31;25.30;65.00
80426;DHT22;69766;51.476;5.704;2023-07-16T13:12:57;26.50;62.10
80426;DHT22;69766;51.476;5.704;2023-07-16T13:15:22;27.40;60.40
80426;DHT22;69766;51.476;5.704;2023-07-16T13:17:48;26.80;59.00
80426;DHT22;69766;51.476;5.704;2023-07-16T13:20:14;27.50;58.80
80426;DHT22;69766;51.476;5.704;2023-07-16T13:22:40;26.80;59.20
80426;DHT22;69766;51.476;5.704;2023-07-16T13:25:06;25.80;62.50
80426;DHT22;69766;51.476;5.704;2023-07-16T13:27:31;25.90;61.10
80426;DHT22;69766;51.476;5.704;2023-07-16T13:29:57;25.40;63.10
80426;DHT22;69766;51.476;5.704;2023-07-16T13:32:23;24.50;64.80
80426;DHT22;69766;51.476;5.704;2023-07-16T13:34:49;25.00;64.80
80426;DHT22;69766;51.476;5.704;2023-07-16T13:37:15;26.30;62.80
80426;DHT22;69766;51.476;5.704;2023-07-16T13:39:40;27.20;59.60
80426;DHT22;69766;51.476;5.704;2023-07-16T13:42:06;27.30;57.20
80426;DHT22;69766;51.476;5.704;2023-07-16T13:44:34;26.80;58.20
80426;DHT22;69766;51.476;5.704;2023-07-16T13:47:00;25.90;59.70
80426;DHT22;69766;51.476;5.704;2023-07-16T13:49:25;25.60;60.40
80426;DHT22;69766;51.476;5.704;2023-07-16T13:51:51;25.70;61.30
80426;DHT22;69766;51.476;5.704;2023-07-16T13:54:17;25.20;62.50
80426;DHT22;69766;51.476;5.704;2023-07-16T13:56:42;25.40;61.80
80426;DHT22;69766;51.476;5.704;2023-07-16T13:59:08;25.50;60.70
80426;DHT22;69766;51.476;5.704;2023-07-16T14:01:38;25.30;62.30
80426;DHT22;69766;51.476;5.704;2023-07-16T14:04:04;25.10;62.70
80426;DHT22;69766;51.476;5.704;2023-07-16T14:06:30;24.90;62.30
80426;DHT22;69766;51.476;5.704;2023-07-16T14:08:56;24.50;64.50
80426;DHT22;69766;51.476;5.704;2023-07-16T14:11:22;24.90;62.80
80426;DHT22;69766;51.476;5.704;2023-07-16T14:13:48;24.70;63.40
80426;DHT22;69766;51.476;5.704;2023-07-16T14:16:17;24.50;63.20
80426;DHT22;69766;51.476;5.704;2023-07-16T14:18:43;25.50;62.50
80426;DHT22;69766;51.476;5.704;2023-07-16T14:21:09;25.30;62.40
80426;DHT22;69766;51.476;5.704;2023-07-16T14:23:34;25.30;62.20
80426;DHT22;69766;51.476;5.704;2023-07-16T14:26:00;25.40;63.10
80426;DHT22;69766;51.476;5.704;2023-07-16T14:28:26;25.20;62.20
80426;DHT22;69766;51.476;5.704;2023-07-16T14:30:51;25.20;62.50
80426;DHT22;69766;51.476;5.704;2023-07-16T14:33:17;25.70;62.20
80426;DHT22;69766;51.476;5.704;2023-07-16T14:35:43;26.20;57.80
80426;DHT22;69766;51.476;5.704;2023-07-16T14:38:08;25.20;60.00
80426;DHT22;69766;51.476;5.704;2023-07-16T14:40:34;25.00;61.30
80426;DHT22;69766;51.476;5.704;2023-07-16T14:43:00;24.60;60.50
80426;DHT22;69766;51.476;5.704;2023-07-16T14:45:26;23.90;62.50
80426;DHT22;69766;51.476;5.704;2023-07-16T14:47:51;23.60;63.30
80426;DHT22;69766;51.476;5.704;2023-07-16T14:50:17;23.80;63.20
80426;DHT22;69766;51.476;5.704;2023-07-16T14:52:43;23.70;63.20
80426;DHT22;69766;51.476;5.704;2023-07-16T14:55:09;23.70;64.20
80426;DHT22;69766;51.476;5.704;2023-07-16T14:57:34;23.70;66.90
80426;DHT22;69766;51.476;5.704;2023-07-16T15:00:00;23.60;64.70
80426;DHT22;69766;51.476;5.704;2023-07-16T15:02:26;23.60;65.00
80426;DHT22;69766;51.476;5.704;2023-07-16T15:04:51;23.80;64.60
80426;DHT22;69766;51.476;5.704;2023-07-16T15:07:17;24.00;66.00
80426;DHT22;69766;51.476;5.704;2023-07-16T15:09:43;24.10;64.30
80426;DHT22;69766;51.476;5.704;2023-07-16T15:12:08;24.00;64.40
80426;DHT22;69766;51.476;5.704;2023-07-16T15:14:34;23.90;64.50
80426;DHT22;69766;51.476;5.704;2023-07-16T15:17:00;24.20;64.80
80426;DHT22;69766;51.476;5.704;2023-07-16T15:19:26;24.20;63.80
80426;DHT22;69766;51.476;5.704;2023-07-16T15:21:51;24.10;65.10
80426;DHT22;69766;51.476;5.704;2023-07-16T15:24:17;24.40;65.00
80426;DHT22;69766;51.476;5.704;2023-07-16T15:26:43;24.40;64.50
80426;DHT22;69766;51.476;5.704;2023-07-16T15:29:08;24.20;65.20
80426;DHT22;69766;51.476;5.704;2023-07-16T15:31:34;23.90;65.70
80426;DHT22;69766;51.476;5.704;2023-07-16T15:33:59;23.80;67.00
80426;DHT22;69766;51.476;5.704;2023-07-16T15:36:26;23.80;67.10
80426;DHT22;69766;51.476;5.704;2023-07-16T15:38:52;23.60;67.40